sensor_id;sensor_type;location;lat;lon;timestamp;P1;durP1;ratioP1;P2;durP2;ratioP2
4500;SDS011;2263;54.654;9.410;2023-02-20T00:01:55;11.30;;;2.40;;
4500;SDS011;2263;54.654;9.410;2023-02-20T00:04:40;7.97;;;2.70;;
4500;SDS011;2263;54.654;9.410;2023-02-20T00:07:25;17.40;;;3.00;;
4500;SDS011;2263;54.654;9.410;2023-02-20T00:10:09;15.07;;;2.33;;
4500;SDS011;2263;54.654;9.410;2023-02-20T00:12:54;14.83;;;3.23;;
4500;SDS011;2263;54.654;9.410;2023-02-20T00:15:38;14.33;;;2.50;;
4500;SDS011;2263;54.654;9.410;2023-02-20T00:18:23;5.60;;;2.23;;
4500;SDS011;2263;54.654;9.410;2023-02-20T00:21:07;9.10;;;2.73;;
4500;SDS011;2263;54.654;9.410;2023-02-20T00:23:52;11.23;;;2.53;;
4500;SDS011;2263;54.654;9.410;2023-02-20T00:26:36;13.13;;;2.43;;
4500;SDS011;2263;54.654;9.410;2023-02-20T00:29:22;13.03;;;2.70;;
4500;SDS011;2263;54.654;9.410;2023-02-20T00:32:07;9.83;;;3.03;;
4500;SDS011;2263;54.654;9.410;2023-02-20T00:34:51;11.53;;;2.60;;
4500;SDS011;2263;54.654;9.410;2023-02-20T00:37:36;11.30;;;3.10;;
4500;SDS011;2263;54.654;9.410;2023-02-20T00:40:24;17.63;;;3.90;;
4500;SDS011;2263;54.654;9.410;2023-02-20T00:43:08;10.30;;;2.90;;
4500;SDS011;2263;54.654;9.410;2023-02-20T00:45:53;11.30;;;3.50;;
4500;SDS011;2263;54.654;9.410;2023-02-20T00:48:38;11.43;;;4.23;;
4500;SDS011;2263;54.654;9.410;2023-02-20T00:51:23;9.50;;;3.30;;
4500;SDS011;2263;54.654;9.410;2023-02-20T00:54:07;11.67;;;3.30;;
4500;SDS011;2263;54.654;9.410;2023-02-20T00:56:53;19.03;;;6.10;;
4500;SDS011;2263;54.654;9.410;2023-02-20T00:59:38;20.23;;;4.60;;
4500;SDS011;2263;54.654;9.410;2023-02-20T01:02:22;10.03;;;3.27;;
4500;SDS011;2263;54.654;9.410;2023-02-20T01:05:06;16.83;;;4.73;;
4500;SDS011;2263;54.654;9.410;2023-02-20T01:07:51;16.73;;;5.10;;
4500;SDS011;2263;54.654;9.410;2023-02-20T01:10:37;16.67;;;6.00;;
4500;SDS011;2263;54.654;9.410;2023-02-20T01:13:21;28.40;;;4.93;;
4500;SDS011;2263;54.654;9.410;2023-02-20T01:16:06;17.27;;;4.13;;
4500;SDS011;2263;54.654;9.410;2023-02-20T01:18:50;10.47;;;3.87;;
4500;SDS011;2263;54.654;9.410;2023-02-20T01:21:35;19.30;;;3.60;;
4500;SDS011;2263;54.654;9.410;2023-02-20T01:24:19;11.43;;;4.00;;
4500;SDS011;2263;54.654;9.410;2023-02-20T01:27:04;16.00;;;3.73;;
4500;SDS011;2263;54.654;9.410;2023-02-20T01:29:48;7.23;;;3.57;;
4500;SDS011;2263;54.654;9.410;2023-02-20T01:32:33;12.87;;;4.43;;
4500;SDS011;2263;54.654;9.410;2023-02-20T01:35:17;16.50;;;4.33;;
4500;SDS011;2263;54.654;9.410;2023-02-20T01:38:02;9.67;;;4.50;;
4500;SDS011;2263;54.654;9.410;2023-02-20T01:40:49;14.40;;;4.17;;
4500;SDS011;2263;54.654;9.410;2023-02-20T01:43:34;23.00;;;5.20;;
4500;SDS011;2263;54.654;9.410;2023-02-20T01:49:14;9.70;;;3.50;;
4500;SDS011;2263;54.654;9.410;2023-02-20T01:52:07;25.13;;;5.20;;
4500;SDS011;2263;54.654;9.410;2023-02-20T01:57:50;14.53;;;4.20;;
4500;SDS011;2263;54.654;9.410;2023-02-20T02:00:37;11.33;;;3.37;;
4500;SDS011;2263;54.654;9.410;2023-02-20T02:03:23;9.20;;;3.53;;
4500;SDS011;2263;54.654;9.410;2023-02-20T02:06:10;19.10;;;4.83;;
4500;SDS011;2263;54.654;9.410;2023-02-20T02:08:56;18.43;;;5.40;;
4500;SDS011;2263;54.654;9.410;2023-02-20T02:11:45;16.30;;;4.67;;
4500;SDS011;2263;54.654;9.410;2023-02-20T02:14:32;21.83;;;5.70;;
4500;SDS011;2263;54.654;9.410;2023-02-20T02:50:48;22.00;;;6.00;;
4500;SDS011;2263;54.654;9.410;2023-02-20T02:53:37;17.80;;;6.90;;
4500;SDS011;2263;54.654;9.410;2023-02-20T02:56:31;20.50;;;6.00;;
4500;SDS011;2263;54.654;9.410;2023-02-20T02:59:18;32.60;;;7.53;;
4500;SDS011;2263;54.654;9.410;2023-02-20T03:02:11;22.77;;;7.17;;
4500;SDS011;2263;54.654;9.410;2023-02-20T03:04:58;21.67;;;7.83;;
4500;SDS011;2263;54.654;9.410;2023-02-20T03:07:44;19.80;;;7.77;;
4500;SDS011;2263;54.654;9.410;2023-02-20T03:10:33;25.77;;;7.50;;
4500;SDS011;2263;54.654;9.410;2023-02-20T03:13:18;20.63;;;8.00;;
4500;SDS011;2263;54.654;9.410;2023-02-20T03:16:02;29.87;;;8.10;;
4500;SDS011;2263;54.654;9.410;2023-02-20T03:18:49;27.27;;;8.60;;
4500;SDS011;2263;54.654;9.410;2023-02-20T03:21:37;24.33;;;7.53;;
4500;SDS011;2263;54.654;9.410;2023-02-20T03:24:26;21.10;;;8.23;;
4500;SDS011;2263;54.654;9.410;2023-02-20T03:27:13;21.03;;;8.03;;
4500;SDS011;2263;54.654;9.410;2023-02-20T03:29:57;32.33;;;8.27;;
4500;SDS011;2263;54.654;9.410;2023-02-20T03:32:43;28.60;;;7.93;;
4500;SDS011;2263;54.654;9.410;2023-02-20T03:35:52;32.83;;;10.07;;
4500;SDS011;2263;54.654;9.410;2023-02-20T03:38:58;38.83;;;8.47;;
4500;SDS011;2263;54.654;9.410;2023-02-20T03:42:05;28.07;;;8.43;;
4500;SDS011;2263;54.654;9.410;2023-02-20T03:45:12;26.23;;;9.60;;
4500;SDS011;2263;54.654;9.410;2023-02-20T03:47:58;27.13;;;9.40;;
4500;SDS011;2263;54.654;9.410;2023-02-20T03:50:46;32.80;;;8.87;;
4500;SDS011;2263;54.654;9.410;2023-02-20T03:53:49;32.10;;;11.17;;
4500;SDS011;2263;54.654;9.410;2023-02-20T03:56:42;28.43;;;9.73;;
4500;SDS011;2263;54.654;9.410;2023-02-20T03:59:56;28.90;;;9.77;;
4500;SDS011;2263;54.654;9.410;2023-02-20T04:02:46;27.93;;;10.60;;
4500;SDS011;2263;54.654;9.410;2023-02-20T04:05:34;39.17;;;10.60;;
4500;SDS011;2263;54.654;9.410;2023-02-20T04:08:27;34.07;;;9.33;;
4500;SDS011;2263;54.654;9.410;2023-02-20T04:11:25;35.37;;;10.73;;
4500;SDS011;2263;54.654;9.410;2023-02-20T04:14:14;38.90;;;9.60;;
4500;SDS011;2263;54.654;9.410;2023-02-20T04:17:05;44.40;;;12.70;;
4500;SDS011;2263;54.654;9.410;2023-02-20T04:19:53;30.83;;;10.00;;
4500;SDS011;2263;54.654;9.410;2023-02-20T04:22:38;27.90;;;10.10;;
4500;SDS011;2263;54.654;9.410;2023-02-20T04:25:30;28.70;;;9.10;;
4500;SDS011;2263;54.654;9.410;2023-02-20T04:28:27;30.70;;;9.00;;
4500;SDS011;2263;54.654;9.410;2023-02-20T04:31:12;35.87;;;9.90;;
4500;SDS011;2263;54.654;9.410;2023-02-20T04:33:59;41.77;;;12.00;;
4500;SDS011;2263;54.654;9.410;2023-02-20T04:36:43;33.80;;;9.70;;
4500;SDS011;2263;54.654;9.410;2023-02-20T04:39:28;41.40;;;10.10;;
4500;SDS011;2263;54.654;9.410;2023-02-20T04:42:12;36.37;;;9.70;;
4500;SDS011;2263;54.654;9.410;2023-02-20T04:44:57;31.37;;;11.00;;
4500;SDS011;2263;54.654;9.410;2023-02-20T04:47:42;38.77;;;9.70;;
4500;SDS011;2263;54.654;9.410;2023-02-20T04:50:29;31.27;;;8.70;;
4500;SDS011;2263;54.654;9.410;2023-02-20T04:53:15;39.50;;;9.40;;
4500;SDS011;2263;54.654;9.410;2023-02-20T04:56:00;29.17;;;9.80;;
4500;SDS011;2263;54.654;9.410;2023-02-20T04:58:47;38.87;;;10.00;;
4500;SDS011;2263;54.654;9.410;2023-02-20T05:01:32;33.70;;;10.10;;
4500;SDS011;2263;54.654;9.410;2023-02-20T05:04:19;45.10;;;9.80;;
4500;SDS011;2263;54.654;9.410;2023-02-20T05:07:04;30.83;;;8.40;;
4500;SDS011;2263;54.654;9.410;2023-02-20T05:09:49;24.57;;;7.50;;
4500;SDS011;2263;54.654;9.410;2023-02-20T05:12:33;27.60;;;8.50;;
4500;SDS011;2263;54.654;9.410;2023-02-20T05:15:18;38.80;;;7.73;;
4500;SDS011;2263;54.654;9.410;2023-02-20T05:18:03;35.23;;;8.37;;
4500;SDS011;2263;54.654;9.410;2023-02-20T05:20:47;38.00;;;7.70;;
4500;SDS011;2263;54.654;9.410;2023-02-20T05:23:50;30.27;;;8.77;;
4500;SDS011;2263;54.654;9.410;2023-02-20T05:26:35;29.40;;;6.30;;
4500;SDS011;2263;54.654;9.410;2023-02-20T05:29:20;36.57;;;9.50;;
4500;SDS011;2263;54.654;9.410;2023-02-20T05:32:05;42.20;;;8.20;;
4500;SDS011;2263;54.654;9.410;2023-02-20T05:34:49;42.13;;;8.00;;
4500;SDS011;2263;54.654;9.410;2023-02-20T05:37:34;31.20;;;8.07;;
4500;SDS011;2263;54.654;9.410;2023-02-20T05:40:18;38.80;;;10.70;;
4500;SDS011;2263;54.654;9.410;2023-02-20T05:43:03;21.43;;;7.60;;
4500;SDS011;2263;54.654;9.410;2023-02-20T05:45:47;29.90;;;7.40;;
4500;SDS011;2263;54.654;9.410;2023-02-20T05:48:32;30.77;;;8.03;;
4500;SDS011;2263;54.654;9.410;2023-02-20T05:51:23;26.30;;;8.33;;
4500;SDS011;2263;54.654;9.410;2023-02-20T05:54:09;28.30;;;6.60;;
4500;SDS011;2263;54.654;9.410;2023-02-20T05:56:54;26.43;;;7.00;;
4500;SDS011;2263;54.654;9.410;2023-02-20T05:59:39;27.63;;;6.93;;
4500;SDS011;2263;54.654;9.410;2023-02-20T06:02:23;38.70;;;10.00;;
4500;SDS011;2263;54.654;9.410;2023-02-20T06:05:07;37.87;;;7.20;;
4500;SDS011;2263;54.654;9.410;2023-02-20T06:07:52;30.50;;;7.30;;
4500;SDS011;2263;54.654;9.410;2023-02-20T06:10:36;24.43;;;6.57;;
4500;SDS011;2263;54.654;9.410;2023-02-20T06:13:21;39.33;;;9.00;;
4500;SDS011;2263;54.654;9.410;2023-02-20T06:16:05;41.20;;;7.60;;
4500;SDS011;2263;54.654;9.410;2023-02-20T06:18:49;34.13;;;7.83;;
4500;SDS011;2263;54.654;9.410;2023-02-20T06:21:34;28.13;;;10.00;;
4500;SDS011;2263;54.654;9.410;2023-02-20T06:24:20;23.00;;;7.40;;
4500;SDS011;2263;54.654;9.410;2023-02-20T06:27:05;36.60;;;7.43;;
4500;SDS011;2263;54.654;9.410;2023-02-20T06:29:51;34.87;;;7.00;;
4500;SDS011;2263;54.654;9.410;2023-02-20T06:32:35;25.33;;;7.07;;
4500;SDS011;2263;54.654;9.410;2023-02-20T06:35:20;33.13;;;8.40;;
4500;SDS011;2263;54.654;9.410;2023-02-20T06:38:04;21.27;;;6.50;;
4500;SDS011;2263;54.654;9.410;2023-02-20T06:40:48;37.47;;;6.97;;
4500;SDS011;2263;54.654;9.410;2023-02-20T06:43:33;31.53;;;7.33;;
4500;SDS011;2263;54.654;9.410;2023-02-20T06:46:17;39.23;;;9.20;;
4500;SDS011;2263;54.654;9.410;2023-02-20T06:49:02;27.47;;;7.20;;
4500;SDS011;2263;54.654;9.410;2023-02-20T06:51:47;22.03;;;7.23;;
4500;SDS011;2263;54.654;9.410;2023-02-20T06:54:35;36.27;;;8.40;;
4500;SDS011;2263;54.654;9.410;2023-02-20T06:57:19;34.57;;;8.27;;
4500;SDS011;2263;54.654;9.410;2023-02-20T07:00:06;34.90;;;8.47;;
4500;SDS011;2263;54.654;9.410;2023-02-20T07:02:52;35.30;;;8.00;;
4500;SDS011;2263;54.654;9.410;2023-02-20T07:05:36;28.13;;;8.00;;
4500;SDS011;2263;54.654;9.410;2023-02-20T07:08:21;33.33;;;7.80;;
4500;SDS011;2263;54.654;9.410;2023-02-20T07:11:05;30.60;;;7.70;;
4500;SDS011;2263;54.654;9.410;2023-02-20T07:13:50;44.00;;;8.50;;
4500;SDS011;2263;54.654;9.410;2023-02-20T07:16:35;34.77;;;7.43;;
4500;SDS011;2263;54.654;9.410;2023-02-20T07:19:20;30.03;;;9.20;;
4500;SDS011;2263;54.654;9.410;2023-02-20T07:22:04;30.43;;;6.97;;
4500;SDS011;2263;54.654;9.410;2023-02-20T07:24:49;36.33;;;8.60;;
4500;SDS011;2263;54.654;9.410;2023-02-20T07:27:34;32.70;;;8.33;;
4500;SDS011;2263;54.654;9.410;2023-02-20T07:30:19;26.07;;;8.03;;
4500;SDS011;2263;54.654;9.410;2023-02-20T07:33:03;41.97;;;8.10;;
4500;SDS011;2263;54.654;9.410;2023-02-20T07:35:48;47.63;;;8.97;;
4500;SDS011;2263;54.654;9.410;2023-02-20T07:38:32;29.50;;;8.80;;
4500;SDS011;2263;54.654;9.410;2023-02-20T07:41:16;27.60;;;7.93;;
4500;SDS011;2263;54.654;9.410;2023-02-20T07:44:01;29.20;;;8.07;;
4500;SDS011;2263;54.654;9.410;2023-02-20T07:46:46;42.40;;;11.00;;
4500;SDS011;2263;54.654;9.410;2023-02-20T07:49:30;24.90;;;7.43;;
4500;SDS011;2263;54.654;9.410;2023-02-20T07:52:15;25.60;;;8.03;;
4500;SDS011;2263;54.654;9.410;2023-02-20T07:54:59;24.83;;;7.23;;
4500;SDS011;2263;54.654;9.410;2023-02-20T07:57:45;20.43;;;10.27;;
4500;SDS011;2263;54.654;9.410;2023-02-20T08:00:32;31.37;;;7.87;;
4500;SDS011;2263;54.654;9.410;2023-02-20T08:03:16;35.10;;;9.30;;
4500;SDS011;2263;54.654;9.410;2023-02-20T08:06:00;43.37;;;8.90;;
4500;SDS011;2263;54.654;9.410;2023-02-20T08:08:46;27.27;;;8.37;;
4500;SDS011;2263;54.654;9.410;2023-02-20T08:11:34;23.93;;;8.30;;
4500;SDS011;2263;54.654;9.410;2023-02-20T08:14:19;33.13;;;8.70;;
4500;SDS011;2263;54.654;9.410;2023-02-20T08:17:04;32.20;;;8.80;;
4500;SDS011;2263;54.654;9.410;2023-02-20T08:19:48;33.47;;;8.73;;
4500;SDS011;2263;54.654;9.410;2023-02-20T08:22:33;29.17;;;8.07;;
4500;SDS011;2263;54.654;9.410;2023-02-20T08:25:18;21.33;;;7.70;;
4500;SDS011;2263;54.654;9.410;2023-02-20T08:28:02;30.70;;;8.33;;
4500;SDS011;2263;54.654;9.410;2023-02-20T08:30:47;29.07;;;8.03;;
4500;SDS011;2263;54.654;9.410;2023-02-20T08:33:31;31.10;;;9.67;;
4500;SDS011;2263;54.654;9.410;2023-02-20T08:36:15;40.50;;;7.87;;
4500;SDS011;2263;54.654;9.410;2023-02-20T08:39:01;34.77;;;8.13;;
4500;SDS011;2263;54.654;9.410;2023-02-20T08:41:46;33.47;;;9.20;;
4500;SDS011;2263;54.654;9.410;2023-02-20T08:44:30;38.20;;;8.27;;
4500;SDS011;2263;54.654;9.410;2023-02-20T08:47:17;36.20;;;8.10;;
4500;SDS011;2263;54.654;9.410;2023-02-20T08:50:03;55.50;;;11.60;;
4500;SDS011;2263;54.654;9.410;2023-02-20T08:52:48;29.00;;;9.00;;
4500;SDS011;2263;54.654;9.410;2023-02-20T08:55:32;25.77;;;9.67;;
4500;SDS011;2263;54.654;9.410;2023-02-20T08:58:18;19.13;;;8.20;;
4500;SDS011;2263;54.654;9.410;2023-02-20T09:01:06;42.03;;;8.50;;
4500;SDS011;2263;54.654;9.410;2023-02-20T09:03:50;44.43;;;7.90;;
4500;SDS011;2263;54.654;9.410;2023-02-20T09:06:35;41.00;;;8.67;;
4500;SDS011;2263;54.654;9.410;2023-02-20T09:09:20;29.10;;;8.30;;
4500;SDS011;2263;54.654;9.410;2023-02-20T09:12:05;24.40;;;8.43;;
4500;SDS011;2263;54.654;9.410;2023-02-20T09:14:49;29.30;;;9.60;;
4500;SDS011;2263;54.654;9.410;2023-02-20T09:17:34;33.37;;;8.83;;
4500;SDS011;2263;54.654;9.410;2023-02-20T09:20:20;30.67;;;9.30;;
4500;SDS011;2263;54.654;9.410;2023-02-20T09:23:04;25.70;;;9.30;;
4500;SDS011;2263;54.654;9.410;2023-02-20T09:25:49;42.43;;;9.00;;
4500;SDS011;2263;54.654;9.410;2023-02-20T09:28:34;21.93;;;8.33;;
4500;SDS011;2263;54.654;9.410;2023-02-20T09:31:19;36.97;;;10.20;;
4500;SDS011;2263;54.654;9.410;2023-02-20T09:34:03;34.77;;;7.97;;
4500;SDS011;2263;54.654;9.410;2023-02-20T09:36:48;22.77;;;6.83;;
4500;SDS011;2263;54.654;9.410;2023-02-20T09:39:32;19.80;;;6.60;;
4500;SDS011;2263;54.654;9.410;2023-02-20T09:45:36;23.63;;;6.80;;
4500;SDS011;2263;54.654;9.410;2023-02-20T09:51:15;28.43;;;8.40;;
4500;SDS011;2263;54.654;9.410;2023-02-20T09:54:08;14.67;;;6.20;;
4500;SDS011;2263;54.654;9.410;2023-02-20T09:57:01;19.70;;;5.47;;
4500;SDS011;2263;54.654;9.410;2023-02-20T09:59:50;24.50;;;6.63;;
4500;SDS011;2263;54.654;9.410;2023-02-20T10:02:49;26.83;;;6.30;;
4500;SDS011;2263;54.654;9.410;2023-02-20T10:05:41;23.13;;;8.20;;
4500;SDS011;2263;54.654;9.410;2023-02-20T10:08:27;28.53;;;6.60;;
4500;SDS011;2263;54.654;9.410;2023-02-20T10:11:15;22.67;;;7.00;;
4500;SDS011;2263;54.654;9.410;2023-02-20T10:17:12;27.10;;;7.60;;
4500;SDS011;2263;54.654;9.410;2023-02-20T10:22:55;34.23;;;7.07;;
4500;SDS011;2263;54.654;9.410;2023-02-20T10:25:42;17.97;;;5.90;;
4500;SDS011;2263;54.654;9.410;2023-02-20T10:28:32;23.37;;;6.27;;
4500;SDS011;2263;54.654;9.410;2023-02-20T10:34:24;29.77;;;6.37;;
4500;SDS011;2263;54.654;9.410;2023-02-20T10:37:34;31.73;;;7.80;;
4500;SDS011;2263;54.654;9.410;2023-02-20T10:40:32;16.40;;;5.63;;
4500;SDS011;2263;54.654;9.410;2023-02-20T10:43:24;32.83;;;7.80;;
4500;SDS011;2263;54.654;9.410;2023-02-20T10:46:25;31.83;;;5.83;;
4500;SDS011;2263;54.654;9.410;2023-02-20T10:49:18;27.37;;;5.73;;
4500;SDS011;2263;54.654;9.410;2023-02-20T10:52:27;35.40;;;8.13;;
4500;SDS011;2263;54.654;9.410;2023-02-20T10:58:16;36.83;;;8.23;;
4500;SDS011;2263;54.654;9.410;2023-02-20T11:01:08;28.30;;;6.43;;
4500;SDS011;2263;54.654;9.410;2023-02-20T11:03:58;36.50;;;6.97;;
4500;SDS011;2263;54.654;9.410;2023-02-20T11:06:58;36.50;;;6.50;;
4500;SDS011;2263;54.654;9.410;2023-02-20T11:09:45;29.83;;;6.50;;
4500;SDS011;2263;54.654;9.410;2023-02-20T11:15:18;18.40;;;5.67;;
4500;SDS011;2263;54.654;9.410;2023-02-20T11:18:06;34.73;;;6.67;;
4500;SDS011;2263;54.654;9.410;2023-02-20T11:21:08;22.83;;;6.30;;
4500;SDS011;2263;54.654;9.410;2023-02-20T11:23:53;45.93;;;8.43;;
4500;SDS011;2263;54.654;9.410;2023-02-20T11:26:37;30.33;;;5.50;;
4500;SDS011;2263;54.654;9.410;2023-02-20T11:29:23;24.70;;;6.53;;
4500;SDS011;2263;54.654;9.410;2023-02-20T11:43:46;43.87;;;7.10;;
4500;SDS011;2263;54.654;9.410;2023-02-20T11:46:31;40.13;;;7.27;;
4500;SDS011;2263;54.654;9.410;2023-02-20T11:49:23;28.03;;;5.60;;
4500;SDS011;2263;54.654;9.410;2023-02-20T11:52:18;49.40;;;7.63;;
4500;SDS011;2263;54.654;9.410;2023-02-20T11:55:37;22.60;;;9.43;;
4500;SDS011;2263;54.654;9.410;2023-02-20T11:58:24;50.50;;;10.27;;
4500;SDS011;2263;54.654;9.410;2023-02-20T12:01:29;47.40;;;10.77;;
4500;SDS011;2263;54.654;9.410;2023-02-20T12:04:19;31.97;;;9.80;;
4500;SDS011;2263;54.654;9.410;2023-02-20T12:07:27;37.30;;;11.13;;
4500;SDS011;2263;54.654;9.410;2023-02-20T12:10:26;22.60;;;9.17;;
4500;SDS011;2263;54.654;9.410;2023-02-20T12:13:26;21.17;;;8.40;;
4500;SDS011;2263;54.654;9.410;2023-02-20T12:19:20;31.57;;;8.10;;
4500;SDS011;2263;54.654;9.410;2023-02-20T12:22:37;32.40;;;7.80;;
4500;SDS011;2263;54.654;9.410;2023-02-20T12:31:53;51.03;;;10.43;;
4500;SDS011;2263;54.654;9.410;2023-02-20T13:02:05;36.80;;;7.10;;
4500;SDS011;2263;54.654;9.410;2023-02-20T13:05:04;30.90;;;6.90;;
4500;SDS011;2263;54.654;9.410;2023-02-20T13:07:52;37.50;;;7.37;;
4500;SDS011;2263;54.654;9.410;2023-02-20T13:10:44;34.53;;;7.57;;
4500;SDS011;2263;54.654;9.410;2023-02-20T13:13:41;39.97;;;6.40;;
4500;SDS011;2263;54.654;9.410;2023-02-20T13:16:29;28.60;;;7.27;;
4500;SDS011;2263;54.654;9.410;2023-02-20T13:22:56;28.03;;;7.43;;
4500;SDS011;2263;54.654;9.410;2023-02-20T13:26:01;36.50;;;6.50;;
4500;SDS011;2263;54.654;9.410;2023-02-20T13:28:46;33.70;;;6.33;;
4500;SDS011;2263;54.654;9.410;2023-02-20T13:37:03;17.93;;;5.70;;
4500;SDS011;2263;54.654;9.410;2023-02-20T13:39:48;33.27;;;6.70;;
4500;SDS011;2263;54.654;9.410;2023-02-20T13:42:33;38.80;;;8.33;;
4500;SDS011;2263;54.654;9.410;2023-02-20T13:45:35;28.13;;;5.13;;
4500;SDS011;2263;54.654;9.410;2023-02-20T13:54:02;20.33;;;5.00;;
4500;SDS011;2263;54.654;9.410;2023-02-20T13:57:11;34.00;;;7.40;;
4500;SDS011;2263;54.654;9.410;2023-02-20T14:00:00;39.80;;;9.23;;
4500;SDS011;2263;54.654;9.410;2023-02-20T14:02:57;26.57;;;7.53;;
4500;SDS011;2263;54.654;9.410;2023-02-20T14:05:42;29.93;;;8.00;;
4500;SDS011;2263;54.654;9.410;2023-02-20T14:08:26;23.10;;;6.57;;
4500;SDS011;2263;54.654;9.410;2023-02-20T14:11:15;35.50;;;8.60;;
4500;SDS011;2263;54.654;9.410;2023-02-20T14:14:32;38.50;;;9.90;;
4500;SDS011;2263;54.654;9.410;2023-02-20T14:17:27;25.90;;;7.67;;
4500;SDS011;2263;54.654;9.410;2023-02-20T14:20:19;26.20;;;7.53;;
4500;SDS011;2263;54.654;9.410;2023-02-20T14:23:18;29.60;;;6.53;;
4500;SDS011;2263;54.654;9.410;2023-02-20T14:26:16;30.17;;;6.93;;
4500;SDS011;2263;54.654;9.410;2023-02-20T14:29:18;36.07;;;7.23;;
4500;SDS011;2263;54.654;9.410;2023-02-20T14:32:14;29.10;;;6.50;;
4500;SDS011;2263;54.654;9.410;2023-02-20T14:35:04;42.10;;;7.93;;
4500;SDS011;2263;54.654;9.410;2023-02-20T14:41:16;25.90;;;6.47;;
4500;SDS011;2263;54.654;9.410;2023-02-20T14:44:10;31.63;;;5.93;;
4500;SDS011;2263;54.654;9.410;2023-02-20T14:47:05;31.07;;;5.47;;
4500;SDS011;2263;54.654;9.410;2023-02-20T14:49:53;14.80;;;5.13;;
4500;SDS011;2263;54.654;9.410;2023-02-20T14:52:37;13.77;;;5.13;;
4500;SDS011;2263;54.654;9.410;2023-02-20T14:55:21;32.77;;;6.30;;
4500;SDS011;2263;54.654;9.410;2023-02-20T14:58:16;19.00;;;5.43;;
4500;SDS011;2263;54.654;9.410;2023-02-20T15:01:12;44.97;;;7.53;;
4500;SDS011;2263;54.654;9.410;2023-02-20T15:04:03;25.33;;;5.57;;
4500;SDS011;2263;54.654;9.410;2023-02-20T15:07:05;25.70;;;5.97;;
4500;SDS011;2263;54.654;9.410;2023-02-20T15:09:51;20.83;;;5.60;;
4500;SDS011;2263;54.654;9.410;2023-02-20T15:12:38;27.40;;;7.00;;
4500;SDS011;2263;54.654;9.410;2023-02-20T15:15:24;17.13;;;4.70;;
4500;SDS011;2263;54.654;9.410;2023-02-20T15:18:09;31.53;;;5.90;;
4500;SDS011;2263;54.654;9.410;2023-02-20T15:20:56;27.30;;;5.40;;
4500;SDS011;2263;54.654;9.410;2023-02-20T15:23:42;29.87;;;7.80;;
4500;SDS011;2263;54.654;9.410;2023-02-20T15:26:31;25.60;;;4.80;;
4500;SDS011;2263;54.654;9.410;2023-02-20T15:29:20;31.97;;;5.60;;
4500;SDS011;2263;54.654;9.410;2023-02-20T15:32:20;33.27;;;5.37;;
4500;SDS011;2263;54.654;9.410;2023-02-20T15:35:13;19.53;;;4.70;;
4500;SDS011;2263;54.654;9.410;2023-02-20T15:38:00;23.37;;;5.60;;
4500;SDS011;2263;54.654;9.410;2023-02-20T15:40:48;29.83;;;6.07;;
4500;SDS011;2263;54.654;9.410;2023-02-20T15:43:32;25.20;;;5.03;;
4500;SDS011;2263;54.654;9.410;2023-02-20T15:46:17;31.40;;;5.53;;
4500;SDS011;2263;54.654;9.410;2023-02-20T15:49:03;33.83;;;6.20;;
4500;SDS011;2263;54.654;9.410;2023-02-20T15:51:48;29.30;;;4.63;;
4500;SDS011;2263;54.654;9.410;2023-02-20T15:54:33;27.47;;;5.23;;
4500;SDS011;2263;54.654;9.410;2023-02-20T15:57:18;27.77;;;6.70;;
4500;SDS011;2263;54.654;9.410;2023-02-20T16:00:02;30.47;;;5.47;;
4500;SDS011;2263;54.654;9.410;2023-02-20T16:02:47;18.57;;;4.60;;
4500;SDS011;2263;54.654;9.410;2023-02-20T16:05:32;27.07;;;6.23;;
4500;SDS011;2263;54.654;9.410;2023-02-20T16:08:17;23.57;;;5.63;;
4500;SDS011;2263;54.654;9.410;2023-02-20T16:11:02;26.30;;;4.77;;
4500;SDS011;2263;54.654;9.410;2023-02-20T16:13:47;24.53;;;5.10;;
4500;SDS011;2263;54.654;9.410;2023-02-20T16:16:41;20.07;;;5.07;;
4500;SDS011;2263;54.654;9.410;2023-02-20T16:19:30;22.23;;;6.23;;
4500;SDS011;2263;54.654;9.410;2023-02-20T16:22:15;25.30;;;4.23;;
4500;SDS011;2263;54.654;9.410;2023-02-20T16:25:00;19.83;;;4.80;;
4500;SDS011;2263;54.654;9.410;2023-02-20T16:27:44;25.37;;;5.73;;
4500;SDS011;2263;54.654;9.410;2023-02-20T16:30:32;27.50;;;6.23;;
4500;SDS011;2263;54.654;9.410;2023-02-20T16:33:20;36.17;;;8.80;;
4500;SDS011;2263;54.654;9.410;2023-02-20T16:36:06;28.93;;;6.50;;
4500;SDS011;2263;54.654;9.410;2023-02-20T16:38:50;30.93;;;9.30;;
4500;SDS011;2263;54.654;9.410;2023-02-20T16:41:34;41.77;;;7.20;;
4500;SDS011;2263;54.654;9.410;2023-02-20T16:44:35;39.03;;;7.53;;
4500;SDS011;2263;54.654;9.410;2023-02-20T16:47:24;32.40;;;8.00;;
4500;SDS011;2263;54.654;9.410;2023-02-20T16:50:14;47.90;;;10.23;;
4500;SDS011;2263;54.654;9.410;2023-02-20T16:53:02;28.43;;;8.33;;
4500;SDS011;2263;54.654;9.410;2023-02-20T16:55:49;30.90;;;8.30;;
4500;SDS011;2263;54.654;9.410;2023-02-20T16:58:35;26.30;;;8.17;;
4500;SDS011;2263;54.654;9.410;2023-02-20T17:01:19;30.13;;;10.10;;
4500;SDS011;2263;54.654;9.410;2023-02-20T17:04:06;35.17;;;9.00;;
4500;SDS011;2263;54.654;9.410;2023-02-20T17:06:52;21.77;;;6.63;;
4500;SDS011;2263;54.654;9.410;2023-02-20T17:09:37;24.83;;;6.27;;
4500;SDS011;2263;54.654;9.410;2023-02-20T17:12:22;34.97;;;7.00;;
4500;SDS011;2263;54.654;9.410;2023-02-20T17:15:07;21.60;;;6.53;;
4500;SDS011;2263;54.654;9.410;2023-02-20T17:17:53;20.20;;;5.80;;
4500;SDS011;2263;54.654;9.410;2023-02-20T17:20:38;20.23;;;6.47;;
4500;SDS011;2263;54.654;9.410;2023-02-20T17:23:23;17.53;;;5.47;;
4500;SDS011;2263;54.654;9.410;2023-02-20T17:26:07;21.30;;;4.23;;
4500;SDS011;2263;54.654;9.410;2023-02-20T17:28:54;23.83;;;5.80;;
4500;SDS011;2263;54.654;9.410;2023-02-20T17:31:38;14.70;;;5.00;;
4500;SDS011;2263;54.654;9.410;2023-02-20T17:34:23;29.07;;;4.43;;
4500;SDS011;2263;54.654;9.410;2023-02-20T17:37:08;22.23;;;4.70;;
4500;SDS011;2263;54.654;9.410;2023-02-20T17:39:53;20.07;;;5.93;;
4500;SDS011;2263;54.654;9.410;2023-02-20T17:42:37;23.77;;;10.87;;
4500;SDS011;2263;54.654;9.410;2023-02-20T17:45:21;15.83;;;6.57;;
4500;SDS011;2263;54.654;9.410;2023-02-20T17:48:06;18.27;;;8.13;;
4500;SDS011;2263;54.654;9.410;2023-02-20T17:50:51;16.00;;;5.70;;
4500;SDS011;2263;54.654;9.410;2023-02-20T17:53:35;16.67;;;7.03;;
4500;SDS011;2263;54.654;9.410;2023-02-20T17:56:20;23.97;;;6.17;;
4500;SDS011;2263;54.654;9.410;2023-02-20T17:59:05;14.07;;;5.47;;
4500;SDS011;2263;54.654;9.410;2023-02-20T18:01:50;22.27;;;5.67;;
4500;SDS011;2263;54.654;9.410;2023-02-20T18:04:34;15.13;;;6.37;;
4500;SDS011;2263;54.654;9.410;2023-02-20T18:07:19;24.00;;;6.40;;
4500;SDS011;2263;54.654;9.410;2023-02-20T18:10:03;22.67;;;5.83;;
4500;SDS011;2263;54.654;9.410;2023-02-20T18:12:48;14.27;;;6.90;;
4500;SDS011;2263;54.654;9.410;2023-02-20T18:15:44;14.53;;;5.70;;
4500;SDS011;2263;54.654;9.410;2023-02-20T18:18:29;29.83;;;6.73;;
4500;SDS011;2263;54.654;9.410;2023-02-20T18:24:08;18.93;;;3.53;;
4500;SDS011;2263;54.654;9.410;2023-02-20T18:26:53;17.87;;;5.00;;
4500;SDS011;2263;54.654;9.410;2023-02-20T18:29:38;14.50;;;4.20;;
4500;SDS011;2263;54.654;9.410;2023-02-20T18:32:22;14.37;;;4.00;;
4500;SDS011;2263;54.654;9.410;2023-02-20T18:35:07;13.47;;;3.70;;
4500;SDS011;2263;54.654;9.410;2023-02-20T18:37:52;15.57;;;3.47;;
4500;SDS011;2263;54.654;9.410;2023-02-20T18:40:36;18.80;;;5.73;;
4500;SDS011;2263;54.654;9.410;2023-02-20T18:43:21;25.67;;;4.37;;
4500;SDS011;2263;54.654;9.410;2023-02-20T18:46:05;30.57;;;4.30;;
4500;SDS011;2263;54.654;9.410;2023-02-20T18:48:50;10.60;;;3.47;;
4500;SDS011;2263;54.654;9.410;2023-02-20T18:51:36;19.23;;;3.47;;
4500;SDS011;2263;54.654;9.410;2023-02-20T18:54:22;15.23;;;3.10;;
4500;SDS011;2263;54.654;9.410;2023-02-20T18:57:09;14.40;;;3.90;;
4500;SDS011;2263;54.654;9.410;2023-02-20T18:59:53;13.77;;;4.73;;
4500;SDS011;2263;54.654;9.410;2023-02-20T19:02:38;22.73;;;3.73;;
4500;SDS011;2263;54.654;9.410;2023-02-20T19:05:23;19.97;;;4.10;;
4500;SDS011;2263;54.654;9.410;2023-02-20T19:08:08;14.00;;;3.60;;
4500;SDS011;2263;54.654;9.410;2023-02-20T19:10:52;21.57;;;3.70;;
4500;SDS011;2263;54.654;9.410;2023-02-20T19:13:36;16.80;;;3.77;;
4500;SDS011;2263;54.654;9.410;2023-02-20T19:16:21;20.73;;;4.63;;